createdAt,value
2023-03-11T00:01:58.489Z,22.84
2023-03-11T00:04:28.338Z,22.84
2023-03-11T00:06:58.272Z,22.79
2023-03-11T00:09:32.250Z,22.77
2023-03-11T00:12:02.848Z,22.73
2023-03-11T00:14:32.853Z,22.72
2023-03-11T00:17:02.474Z,22.69
2023-03-11T00:19:32.266Z,22.70
2023-03-11T00:22:04.266Z,22.70
2023-03-11T00:24:34.311Z,22.66
2023-03-11T00:27:04.196Z,22.64
2023-03-11T00:29:33.909Z,22.60
2023-03-11T00:32:03.521Z,22.53
2023-03-11T00:34:34.058Z,22.48
2023-03-11T00:37:04.140Z,22.43
2023-03-11T00:39:34.416Z,22.43
2023-03-11T00:42:05.217Z,22.42
2023-03-11T00:44:35.039Z,22.39
2023-03-11T00:47:04.682Z,22.43
2023-03-11T00:49:34.653Z,22.41
2023-03-11T00:52:05.231Z,22.35
2023-03-11T00:54:35.057Z,22.32
2023-03-11T00:57:04.807Z,22.29
2023-03-11T00:59:36.973Z,22.25
2023-03-11T01:02:06.849Z,22.19
2023-03-11T01:04:36.926Z,22.19
2023-03-11T01:07:06.856Z,22.19
2023-03-11T01:09:37.083Z,22.14
2023-03-11T01:12:09.660Z,22.12
2023-03-11T01:14:40.206Z,22.09
2023-03-11T01:17:12.144Z,22.09
2023-03-11T01:19:41.968Z,22.06
2023-03-11T01:22:11.574Z,22.00
2023-03-11T01:24:41.598Z,22.01
2023-03-11T01:27:11.520Z,22.00
2023-03-11T01:29:41.349Z,21.98
2023-03-11T01:32:12.580Z,21.95
2023-03-11T01:34:42.497Z,21.94
2023-03-11T01:37:12.143Z,21.91
2023-03-11T01:39:41.798Z,21.88
2023-03-11T01:42:11.706Z,21.88
2023-03-11T01:44:41.686Z,21.84
2023-03-11T01:47:14.197Z,21.85
2023-03-11T01:49:44.104Z,21.83
2023-03-11T01:52:14.142Z,21.84
2023-03-11T01:54:51.893Z,21.81
2023-03-11T01:57:23.718Z,21.75
2023-03-11T01:59:58.214Z,21.80
2023-03-11T02:02:37.910Z,21.75
2023-03-11T02:05:08.188Z,21.74
2023-03-11T02:07:41.359Z,21.71
2023-03-11T02:10:15.473Z,21.67
2023-03-11T02:12:47.325Z,21.64
2023-03-11T02:15:26.480Z,21.63
2023-03-11T02:17:57.614Z,21.58
2023-03-11T02:21:04.816Z,21.64
2023-03-11T02:24:00.106Z,21.63
2023-03-11T02:26:34.575Z,21.53
2023-03-11T02:29:08.325Z,21.51
2023-03-11T02:31:43.003Z,21.49
2023-03-11T02:34:23.031Z,21.49
2023-03-11T02:36:56.061Z,21.49
2023-03-11T02:39:37.693Z,21.46
2023-03-11T02:42:14.535Z,21.44
2023-03-11T02:44:48.746Z,21.39
2023-03-11T02:47:18.797Z,21.33
2023-03-11T02:49:49.451Z,21.36
2023-03-11T02:52:19.714Z,21.34
2023-03-11T02:54:49.591Z,21.32
2023-03-11T02:57:19.227Z,21.30
2023-03-11T02:59:48.854Z,21.27
2023-03-11T03:02:18.992Z,21.29
2023-03-11T03:04:50.082Z,21.30
2023-03-11T03:07:19.993Z,21.27
2023-03-11T03:09:49.603Z,21.26
2023-03-11T03:12:19.638Z,21.23
2023-03-11T03:14:49.966Z,21.23
2023-03-11T03:17:20.824Z,21.20
2023-03-11T03:19:50.734Z,21.16
2023-03-11T03:22:21.874Z,21.13
2023-03-11T03:24:51.947Z,21.12
2023-03-11T03:27:22.770Z,21.13
2023-03-11T03:29:53.877Z,21.12
2023-03-11T03:32:25.281Z,21.07
2023-03-11T03:35:00.123Z,21.06
2023-03-11T03:37:45.674Z,21.06
2023-03-11T03:40:16.071Z,21.03
2023-03-11T03:42:49.307Z,21.05
2023-03-11T03:45:20.021Z,21.02
2023-03-11T03:47:52.951Z,20.96
2023-03-11T03:50:25.323Z,20.92
2023-03-11T03:52:57.724Z,20.89
2023-03-11T03:55:28.729Z,20.89
2023-03-11T03:57:59.865Z,20.82
2023-03-11T04:00:35.515Z,20.85
2023-03-11T04:03:05.981Z,20.88
2023-03-11T04:05:46.534Z,20.79
2023-03-11T04:08:17.167Z,20.82
2023-03-11T04:10:47.260Z,20.78
2023-03-11T04:13:17.324Z,20.76
2023-03-11T04:15:47.714Z,20.79
2023-03-11T04:18:17.586Z,20.78
2023-03-11T04:20:47.741Z,20.75
2023-03-11T04:23:18.152Z,20.74
2023-03-11T04:25:48.283Z,20.76
2023-03-11T04:28:18.480Z,20.75
2023-03-11T04:30:48.447Z,20.75
2023-03-11T04:33:18.560Z,20.74
2023-03-11T04:35:48.771Z,20.72
2023-03-11T04:38:21.258Z,20.72
2023-03-11T04:40:51.367Z,20.75
2023-03-11T04:43:21.390Z,20.71
2023-03-11T04:45:52.741Z,20.67
2023-03-11T04:48:23.734Z,20.75
2023-03-11T04:50:53.348Z,20.65
2023-03-11T04:53:24.292Z,20.68
2023-03-11T04:55:55.030Z,20.65
2023-03-11T04:58:25.198Z,20.61
2023-03-11T05:00:55.392Z,20.59
2023-03-11T05:03:25.687Z,20.59
2023-03-11T05:05:57.867Z,20.57
2023-03-11T05:08:27.880Z,20.57
2023-03-11T05:10:57.831Z,20.55
2023-03-11T05:13:28.384Z,20.54
2023-03-11T05:16:00.360Z,20.54
2023-03-11T05:18:32.127Z,20.54
2023-03-11T05:21:02.305Z,20.63
2023-03-11T05:23:34.598Z,20.48
2023-03-11T05:26:04.794Z,20.43
2023-03-11T05:28:36.619Z,20.43
2023-03-11T05:31:13.437Z,20.47
2023-03-11T05:33:44.777Z,20.41
2023-03-11T05:36:15.960Z,20.43
2023-03-11T05:38:47.340Z,20.40
2023-03-11T05:41:17.692Z,20.38
2023-03-11T05:43:49.279Z,20.34
2023-03-11T05:46:22.259Z,20.31
2023-03-11T05:48:52.160Z,20.30
2023-03-11T05:51:22.154Z,20.30
2023-03-11T05:53:52.364Z,20.33
2023-03-11T05:56:30.790Z,20.31
2023-03-11T05:59:00.790Z,20.28
2023-03-11T06:01:33.717Z,20.28
2023-03-11T06:04:04.481Z,20.27
2023-03-11T06:06:34.875Z,20.28
2023-03-11T06:09:05.272Z,20.26
2023-03-11T06:11:35.807Z,20.24
2023-03-11T06:14:06.130Z,20.20
2023-03-11T06:16:36.109Z,20.24
2023-03-11T06:19:07.445Z,20.21
2023-03-11T06:21:41.215Z,20.18
2023-03-11T06:24:11.284Z,20.18
2023-03-11T06:26:40.950Z,20.14
2023-03-11T06:29:15.530Z,20.10
2023-03-11T06:31:46.799Z,20.06
2023-03-11T06:34:16.995Z,20.07
2023-03-11T06:36:47.720Z,20.07
2023-03-11T06:39:19.090Z,20.07
2023-03-11T06:41:51.077Z,20.06
2023-03-11T06:44:21.386Z,20.05
2023-03-11T06:46:51.049Z,20.00
2023-03-11T06:49:21.292Z,20.00
2023-03-11T06:51:51.839Z,20.01
2023-03-11T06:54:21.609Z,20.05
2023-03-11T06:56:51.480Z,20.00
2023-03-11T06:59:23.971Z,19.98
2023-03-11T07:01:55.401Z,19.94
2023-03-11T07:04:25.543Z,19.93
2023-03-11T07:06:55.409Z,19.86
2023-03-11T07:09:26.428Z,19.89
2023-03-11T07:11:56.674Z,19.92
2023-03-11T07:14:32.545Z,19.87
2023-03-11T07:17:02.903Z,19.86
2023-03-11T07:19:41.529Z,19.86
2023-03-11T07:22:11.551Z,19.87
2023-03-11T07:24:41.309Z,19.89
2023-03-11T07:27:10.908Z,19.87
2023-03-11T07:29:40.959Z,19.87
2023-03-11T07:32:12.206Z,19.86
2023-03-11T07:34:42.310Z,19.85
2023-03-11T07:37:12.168Z,19.85
2023-03-11T07:39:41.768Z,19.83
2023-03-11T07:42:11.741Z,19.82
2023-03-11T07:44:41.785Z,19.80
2023-03-11T07:47:11.961Z,19.79
2023-03-11T07:49:42.001Z,19.76
2023-03-11T07:52:12.118Z,19.76
2023-03-11T07:54:42.917Z,19.72
2023-03-11T07:57:18.160Z,19.72
2023-03-11T07:59:47.928Z,19.72
2023-03-11T08:02:18.042Z,19.69
2023-03-11T08:04:47.842Z,19.70
2023-03-11T08:07:17.653Z,19.72
2023-03-11T08:09:47.261Z,19.70
2023-03-11T08:12:17.931Z,19.67
2023-03-11T08:14:47.729Z,19.65
2023-03-11T08:17:17.711Z,19.69
2023-03-11T08:19:47.477Z,19.66
2023-03-11T08:22:17.095Z,19.67
2023-03-11T08:24:47.040Z,19.66
2023-03-11T08:27:16.760Z,19.65
2023-03-11T08:29:46.591Z,19.61
2023-03-11T08:32:16.449Z,19.59
2023-03-11T08:34:46.172Z,19.62
2023-03-11T08:37:16.023Z,19.61
2023-03-11T08:39:45.619Z,19.62
2023-03-11T08:42:15.661Z,19.62
2023-03-11T08:44:45.662Z,19.56
2023-03-11T08:47:15.687Z,19.55
2023-03-11T08:49:45.400Z,19.52
2023-03-11T08:52:15.036Z,19.55
2023-03-11T08:54:44.840Z,19.45
2023-03-11T08:57:14.807Z,19.44
2023-03-11T08:59:44.420Z,19.45
2023-03-11T09:02:14.024Z,19.46
2023-03-11T09:04:44.033Z,19.44
2023-03-11T09:07:14.460Z,19.41
2023-03-11T09:09:44.461Z,19.32
2023-03-11T09:12:15.314Z,19.31
2023-03-11T09:14:45.893Z,19.32
2023-03-11T09:17:16.236Z,19.31
2023-03-11T09:19:46.078Z,19.29
2023-03-11T09:22:16.107Z,19.25
2023-03-11T09:24:46.114Z,19.25
2023-03-11T09:27:16.787Z,19.27
2023-03-11T09:29:46.602Z,19.25
2023-03-11T09:32:17.409Z,19.24
2023-03-11T09:34:47.277Z,19.22
2023-03-11T09:37:16.945Z,19.24
2023-03-11T09:39:46.968Z,19.24
2023-03-11T09:42:35.020Z,19.24
2023-03-11T09:45:15.039Z,19.29
2023-03-11T09:48:08.695Z,19.31
2023-03-11T09:50:50.765Z,19.27
2023-03-11T09:53:39.681Z,19.28
2023-03-11T09:56:14.616Z,19.32
2023-03-11T09:58:57.092Z,19.35
2023-03-11T10:01:46.792Z,19.41
2023-03-11T10:04:25.138Z,19.39
2023-03-11T10:06:55.994Z,19.45
2023-03-11T10:09:50.151Z,19.52
2023-03-11T10:13:06.660Z,19.55
2023-03-11T10:16:02.205Z,19.59
2023-03-11T10:18:55.624Z,19.66
2023-03-11T10:21:54.575Z,19.79
2023-03-11T10:24:38.790Z,19.94
2023-03-11T10:27:37.143Z,20.34
2023-03-11T10:30:25.943Z,20.64
2023-03-11T10:33:12.004Z,20.81
2023-03-11T10:35:45.871Z,21.19
2023-03-11T10:38:32.841Z,21.64
2023-03-11T10:41:33.665Z,22.22
2023-03-11T10:44:16.858Z,22.84
2023-03-11T10:46:46.793Z,23.27
2023-03-11T10:49:18.662Z,23.69
2023-03-11T10:51:52.027Z,24.00
2023-03-11T10:54:47.228Z,24.39
2023-03-11T10:57:33.655Z,24.64
2023-03-11T11:00:18.464Z,24.82
2023-03-11T11:02:59.156Z,25.12
2023-03-11T11:05:33.893Z,25.46
2023-03-11T11:08:18.323Z,25.71
2023-03-11T11:10:54.199Z,25.90
2023-03-11T11:13:26.987Z,26.22
2023-03-11T11:16:19.990Z,26.66
2023-03-11T11:19:04.492Z,26.80
2023-03-11T11:21:41.650Z,26.58
2023-03-11T11:24:31.376Z,26.90
2023-03-11T11:27:16.998Z,27.13
2023-03-11T11:29:50.870Z,27.22
2023-03-11T11:32:31.006Z,27.86
2023-03-11T11:35:14.897Z,28.02
2023-03-11T11:37:56.913Z,27.99
2023-03-11T11:40:34.915Z,27.67
2023-03-11T11:43:31.688Z,27.53
2023-03-11T11:46:07.662Z,27.91
2023-03-11T11:48:40.003Z,28.86
2023-03-11T11:51:36.719Z,28.87
2023-03-11T11:54:59.643Z,29.18
2023-03-11T11:57:29.850Z,29.46
2023-03-11T11:59:59.722Z,29.25
2023-03-11T12:02:47.589Z,29.00
2023-03-11T12:05:36.707Z,29.70
2023-03-11T12:08:27.502Z,30.09
2023-03-11T12:11:10.416Z,30.16
2023-03-11T12:14:03.318Z,29.92
2023-03-11T12:16:55.927Z,29.61
2023-03-11T12:19:31.491Z,29.93
2023-03-11T12:22:06.948Z,30.28
2023-03-11T12:24:45.531Z,30.64
2023-03-11T12:27:26.497Z,31.67
2023-03-11T12:30:07.827Z,32.33
2023-03-11T12:32:53.691Z,32.42
2023-03-11T12:35:28.971Z,32.56
2023-03-11T12:38:21.689Z,31.67
2023-03-11T12:41:08.638Z,31.71
2023-03-11T12:43:38.614Z,31.74
2023-03-11T12:46:10.283Z,32.33
2023-03-11T12:48:47.314Z,32.79
2023-03-11T12:51:28.907Z,33.18
2023-03-11T12:53:58.892Z,32.95
2023-03-11T12:56:46.863Z,32.96
2023-03-11T12:59:38.017Z,32.42
2023-03-11T13:02:26.048Z,33.11
2023-03-11T13:05:01.667Z,32.97
2023-03-11T13:07:52.770Z,33.26
2023-03-11T13:10:40.655Z,33.06
2023-03-11T13:13:34.565Z,32.52
2023-03-11T13:16:16.693Z,33.28
2023-03-11T13:18:52.970Z,32.73
2023-03-11T13:21:33.430Z,31.91
2023-03-11T13:24:32.384Z,33.20
2023-03-11T13:27:09.203Z,33.89
2023-03-11T13:30:02.013Z,34.16
2023-03-11T13:32:37.173Z,33.21
2023-03-11T13:35:26.126Z,34.31
2023-03-11T13:38:32.934Z,33.88
2023-03-11T13:41:04.536Z,33.76
2023-03-11T13:43:34.828Z,33.16
2023-03-11T13:46:13.946Z,34.19
2023-03-11T13:48:49.512Z,33.59
2023-03-11T13:51:21.924Z,33.74
2023-03-11T13:53:56.506Z,33.91
2023-03-11T13:56:33.666Z,34.50
2023-03-11T13:59:33.963Z,34.35
2023-03-11T14:02:03.854Z,34.95
2023-03-11T14:04:37.281Z,34.52
2023-03-11T14:07:21.644Z,35.85
2023-03-11T14:09:51.777Z,36.58
2023-03-11T14:12:21.624Z,36.37
2023-03-11T14:15:02.373Z,35.15
2023-03-11T14:17:32.374Z,34.19
2023-03-11T14:20:19.658Z,34.81
2023-03-11T14:22:52.623Z,35.43
2023-03-11T14:25:32.327Z,34.39
2023-03-11T14:28:07.048Z,34.19
2023-03-11T14:30:36.954Z,34.67
2023-03-11T14:33:23.893Z,35.04
2023-03-11T14:36:03.440Z,35.24
2023-03-11T14:38:34.657Z,35.73
2023-03-11T14:41:08.465Z,36.27
2023-03-11T14:43:45.387Z,35.92
2023-03-11T14:46:23.962Z,36.43
2023-03-11T14:48:55.370Z,36.26
2023-03-11T14:51:32.665Z,35.39
2023-03-11T14:54:32.616Z,34.20
2023-03-11T14:57:16.668Z,33.27
2023-03-11T14:59:50.009Z,33.94
2023-03-11T15:02:45.919Z,36.40
2023-03-11T15:05:46.617Z,36.84
2023-03-11T15:08:20.995Z,34.01
2023-03-11T15:11:14.713Z,32.76
2023-03-11T15:13:48.508Z,31.54
2023-03-11T15:16:37.814Z,31.08
2023-03-11T15:19:29.304Z,30.99
2023-03-11T15:22:03.888Z,32.18
2023-03-11T15:24:34.900Z,35.45
2023-03-11T15:27:08.596Z,36.95
2023-03-11T15:29:38.552Z,36.60
2023-03-11T15:32:27.545Z,36.60
2023-03-11T15:35:09.141Z,36.50
2023-03-11T15:37:40.410Z,35.82
2023-03-11T15:40:44.522Z,36.39
2023-03-11T15:43:22.003Z,36.70
2023-03-11T15:45:56.900Z,36.89
2023-03-11T15:48:29.019Z,36.21
2023-03-11T15:51:00.586Z,35.93
2023-03-11T15:53:31.404Z,36.06
2023-03-11T15:56:11.854Z,36.13
2023-03-11T15:58:41.687Z,36.09
2023-03-11T16:01:11.454Z,36.72
2023-03-11T16:03:41.462Z,36.89
2023-03-11T16:06:12.344Z,37.21
2023-03-11T16:08:42.588Z,37.88
2023-03-11T16:11:14.924Z,38.85
2023-03-11T16:13:45.056Z,39.12
2023-03-11T16:16:19.121Z,39.29
2023-03-11T16:18:49.194Z,39.34
2023-03-11T16:21:22.306Z,38.29
2023-03-11T16:23:53.249Z,36.03
2023-03-11T16:26:24.515Z,36.61
2023-03-11T16:28:55.321Z,38.38
2023-03-11T16:31:25.308Z,37.57
2023-03-11T16:33:55.717Z,37.28
2023-03-11T16:36:25.600Z,36.85
2023-03-11T16:38:55.267Z,33.79
2023-03-11T16:41:25.374Z,33.16
2023-03-11T16:43:55.347Z,32.29
2023-03-11T16:46:25.345Z,32.27
2023-03-11T16:48:55.564Z,34.53
2023-03-11T16:51:26.433Z,36.70
2023-03-11T16:53:56.544Z,37.50
2023-03-11T16:56:26.520Z,37.03
2023-03-11T16:58:56.438Z,37.12
2023-03-11T17:01:26.604Z,35.56
2023-03-11T17:03:56.568Z,33.35
2023-03-11T17:06:26.399Z,32.97
2023-03-11T17:08:56.393Z,35.31
2023-03-11T17:11:29.618Z,36.71
2023-03-11T17:14:13.840Z,36.55
2023-03-11T17:16:46.694Z,35.96
2023-03-11T17:19:17.111Z,36.24
2023-03-11T17:21:47.017Z,36.58
2023-03-11T17:24:16.604Z,36.55
2023-03-11T17:26:46.625Z,36.40
2023-03-11T17:29:16.711Z,37.11
2023-03-11T17:31:46.689Z,36.84
2023-03-11T17:34:16.814Z,36.30
2023-03-11T17:36:46.650Z,36.43
2023-03-11T17:39:16.248Z,36.23
2023-03-11T17:41:46.639Z,36.75
2023-03-11T17:44:16.664Z,36.03
2023-03-11T17:46:46.438Z,37.15
2023-03-11T17:49:16.562Z,37.19
2023-03-11T17:51:46.377Z,36.55
2023-03-11T17:54:16.236Z,36.81
2023-03-11T17:56:45.865Z,36.71
2023-03-11T17:59:17.617Z,37.12
2023-03-11T18:01:48.060Z,36.47
2023-03-11T18:04:17.945Z,36.77
2023-03-11T18:06:47.770Z,37.42
2023-03-11T18:09:18.279Z,37.02
2023-03-11T18:11:49.031Z,36.92
2023-03-11T18:14:18.926Z,37.42
2023-03-11T18:16:48.777Z,34.98
2023-03-11T18:19:18.382Z,34.66
2023-03-11T18:21:49.266Z,35.45
2023-03-11T18:24:19.084Z,36.79
2023-03-11T18:26:48.947Z,37.25
2023-03-11T18:29:19.121Z,37.46
2023-03-11T18:31:49.051Z,36.55
2023-03-11T18:34:19.127Z,35.55
2023-03-11T18:36:50.341Z,35.37
2023-03-11T18:39:20.426Z,35.46
2023-03-11T18:41:50.050Z,35.31
2023-03-11T18:44:19.688Z,35.78
2023-03-11T18:46:49.506Z,36.03
2023-03-11T18:49:19.167Z,35.94
2023-03-11T18:51:49.227Z,35.12
2023-03-11T18:54:19.208Z,35.01
2023-03-11T18:56:49.082Z,34.64
2023-03-11T18:59:19.430Z,35.43
2023-03-11T19:01:52.112Z,35.76
2023-03-11T19:04:24.371Z,35.24
2023-03-11T19:06:54.244Z,35.25
2023-03-11T19:09:24.210Z,34.83
2023-03-11T19:11:54.001Z,34.33
2023-03-11T19:14:23.849Z,34.42
2023-03-11T19:16:53.989Z,34.36
2023-03-11T19:19:23.889Z,34.46
2023-03-11T19:21:53.717Z,34.90
2023-03-11T19:24:23.763Z,34.47
2023-03-11T19:26:53.666Z,33.89
2023-03-11T19:29:25.417Z,33.30
2023-03-11T19:31:55.554Z,33.30
2023-03-11T19:34:25.603Z,33.11
2023-03-11T19:36:55.217Z,33.04
2023-03-11T19:39:26.169Z,33.06
2023-03-11T19:41:56.712Z,33.26
2023-03-11T19:44:26.715Z,33.08
2023-03-11T19:46:56.428Z,32.60
2023-03-11T19:49:26.286Z,32.21
2023-03-11T19:51:57.150Z,32.18
2023-03-11T19:54:27.089Z,31.92
2023-03-11T19:56:58.116Z,31.85
2023-03-11T19:59:27.964Z,31.81
2023-03-11T20:01:58.061Z,31.67
2023-03-11T20:04:28.110Z,31.51
2023-03-11T20:06:58.025Z,31.50
2023-03-11T20:09:28.054Z,31.30
2023-03-11T20:11:58.727Z,31.13
2023-03-11T20:14:28.677Z,31.20
2023-03-11T20:16:58.437Z,31.06
2023-03-11T20:19:28.055Z,30.91
2023-03-11T20:21:57.995Z,30.81
2023-03-11T20:24:28.177Z,30.89
2023-03-11T20:26:58.130Z,30.85
2023-03-11T20:29:28.069Z,30.65
2023-03-11T20:31:58.252Z,30.55
2023-03-11T20:34:28.247Z,30.60
2023-03-11T20:36:58.200Z,30.52
2023-03-11T20:39:28.155Z,30.55
2023-03-11T20:41:58.001Z,30.44
2023-03-11T20:44:27.982Z,30.31
2023-03-11T20:46:58.105Z,30.18
2023-03-11T20:49:28.129Z,30.14
2023-03-11T20:51:58.055Z,30.17
2023-03-11T20:54:27.950Z,30.10
2023-03-11T20:56:58.859Z,30.07
2023-03-11T20:59:28.947Z,29.94
2023-03-11T21:01:59.039Z,29.84
2023-03-11T21:04:29.202Z,29.77
2023-03-11T21:06:59.555Z,29.62
2023-03-11T21:09:29.388Z,29.53
2023-03-11T21:11:59.225Z,29.26
2023-03-11T21:14:30.030Z,29.15
2023-03-11T21:16:59.995Z,29.03
2023-03-11T21:19:30.805Z,28.95
2023-03-11T21:22:00.633Z,28.80
2023-03-11T21:24:30.364Z,28.68
2023-03-11T21:27:00.426Z,28.49
2023-03-11T21:29:31.841Z,28.39
2023-03-11T21:32:01.965Z,28.35
2023-03-11T21:34:31.895Z,28.27
2023-03-11T21:37:01.671Z,28.22
2023-03-11T21:39:32.470Z,28.08
2023-03-11T21:42:02.429Z,27.96
2023-03-11T21:44:32.835Z,27.86
2023-03-11T21:47:02.890Z,27.71
2023-03-11T21:49:32.819Z,27.59
2023-03-11T21:52:02.708Z,27.40
2023-03-11T21:54:33.073Z,27.27
2023-03-11T21:57:03.127Z,27.22
2023-03-11T21:59:33.263Z,27.03
2023-03-11T22:02:04.129Z,26.97
2023-03-11T22:04:34.429Z,26.93
2023-03-11T22:07:04.362Z,26.79
2023-03-11T22:09:34.546Z,26.65
2023-03-11T22:12:05.129Z,26.53
2023-03-11T22:14:35.109Z,26.45
2023-03-11T22:17:07.598Z,26.41
2023-03-11T22:19:37.782Z,26.20
2023-03-11T22:22:07.560Z,26.08
2023-03-11T22:24:37.536Z,25.96
2023-03-11T22:27:08.191Z,25.81
2023-03-11T22:29:40.199Z,25.77
2023-03-11T22:32:10.194Z,25.65
2023-03-11T22:34:40.473Z,25.56
2023-03-11T22:37:10.523Z,25.47
2023-03-11T22:39:40.554Z,25.40
2023-03-11T22:42:11.413Z,25.35
2023-03-11T22:44:41.558Z,25.25
2023-03-11T22:47:11.805Z,25.16
2023-03-11T22:49:41.955Z,25.14
2023-03-11T22:52:11.980Z,25.05
2023-03-11T22:54:41.813Z,24.91
2023-03-11T22:57:12.068Z,24.81
2023-03-11T22:59:42.102Z,24.81
2023-03-11T23:02:12.177Z,24.75
2023-03-11T23:04:45.274Z,24.74
2023-03-11T23:07:15.521Z,24.67
2023-03-11T23:09:47.098Z,24.60
2023-03-11T23:12:17.291Z,24.57
2023-03-11T23:14:48.334Z,24.46
2023-03-11T23:17:18.354Z,24.37
2023-03-11T23:19:48.574Z,24.31
2023-03-11T23:22:19.506Z,24.31
2023-03-11T23:24:49.775Z,24.20
2023-03-11T23:27:19.922Z,24.19
2023-03-11T23:29:49.961Z,24.13
2023-03-11T23:32:19.905Z,24.08
2023-03-11T23:34:50.233Z,24.00
2023-03-11T23:37:20.305Z,23.93
2023-03-11T23:39:50.321Z,23.90
2023-03-11T23:42:25.927Z,23.90
2023-03-11T23:44:56.434Z,23.86
2023-03-11T23:47:26.686Z,23.82
2023-03-11T23:49:56.744Z,23.78
2023-03-11T23:52:26.870Z,23.76
2023-03-11T23:54:57.572Z,23.75
2023-03-11T23:57:27.627Z,23.71
2023-03-11T23:59:57.890Z,23.66
